sensor_id;sensor_type;location;lat;lon;timestamp;P1;durP1;ratioP1;P2;durP2;ratioP2
27839;SDS011;15207;42.182;24.308;2022-10-22T00:00:38;28.95;;;19.40;;
27839;SDS011;15207;42.182;24.308;2022-10-22T00:03:04;30.40;;;18.00;;
27839;SDS011;15207;42.182;24.308;2022-10-22T00:05:29;30.50;;;18.05;;
27839;SDS011;15207;42.182;24.308;2022-10-22T00:07:55;30.20;;;18.90;;
27839;SDS011;15207;42.182;24.308;2022-10-22T00:10:21;33.60;;;19.20;;
27839;SDS011;15207;42.182;24.308;2022-10-22T00:12:46;31.80;;;18.50;;
27839;SDS011;15207;42.182;24.308;2022-10-22T00:15:12;30.43;;;18.40;;
27839;SDS011;15207;42.182;24.308;2022-10-22T00:17:37;35.10;;;18.50;;
27839;SDS011;15207;42.182;24.308;2022-10-22T00:20:03;35.17;;;20.47;;
27839;SDS011;15207;42.182;24.308;2022-10-22T00:22:29;37.75;;;21.35;;
27839;SDS011;15207;42.182;24.308;2022-10-22T00:24:55;33.60;;;21.05;;
27839;SDS011;15207;42.182;24.308;2022-10-22T00:27:20;38.60;;;24.50;;
27839;SDS011;15207;42.182;24.308;2022-10-22T00:29:46;38.22;;;21.58;;
27839;SDS011;15207;42.182;24.308;2022-10-22T00:32:12;32.65;;;20.55;;
27839;SDS011;15207;42.182;24.308;2022-10-22T00:34:38;33.25;;;21.05;;
27839;SDS011;15207;42.182;24.308;2022-10-22T00:37:03;38.20;;;22.45;;
27839;SDS011;15207;42.182;24.308;2022-10-22T00:39:29;42.97;;;21.47;;
27839;SDS011;15207;42.182;24.308;2022-10-22T00:41:55;39.00;;;22.73;;
27839;SDS011;15207;42.182;24.308;2022-10-22T00:47:06;33.95;;;21.05;;
27839;SDS011;15207;42.182;24.308;2022-10-22T00:49:31;37.50;;;20.60;;
27839;SDS011;15207;42.182;24.308;2022-10-22T00:51:57;34.20;;;20.50;;
27839;SDS011;15207;42.182;24.308;2022-10-22T00:54:22;33.70;;;21.00;;
27839;SDS011;15207;42.182;24.308;2022-10-22T00:56:48;32.00;;;21.10;;
27839;SDS011;15207;42.182;24.308;2022-10-22T00:59:14;31.07;;;19.77;;
27839;SDS011;15207;42.182;24.308;2022-10-22T01:01:41;36.28;;;19.65;;
27839;SDS011;15207;42.182;24.308;2022-10-22T01:04:06;30.70;;;20.00;;
27839;SDS011;15207;42.182;24.308;2022-10-22T01:06:32;36.30;;;20.83;;
27839;SDS011;15207;42.182;24.308;2022-10-22T01:25:53;36.85;;;21.58;;
27839;SDS011;15207;42.182;24.308;2022-10-22T01:31:22;34.40;;;20.70;;
27839;SDS011;15207;42.182;24.308;2022-10-22T01:33:53;29.53;;;19.83;;
27839;SDS011;15207;42.182;24.308;2022-10-22T01:36:19;29.95;;;20.90;;
27839;SDS011;15207;42.182;24.308;2022-10-22T01:38:45;29.67;;;19.73;;
27839;SDS011;15207;42.182;24.308;2022-10-22T01:41:13;37.10;;;21.97;;
27839;SDS011;15207;42.182;24.308;2022-10-22T01:43:39;40.15;;;21.60;;
27839;SDS011;15207;42.182;24.308;2022-10-22T01:46:05;34.95;;;21.45;;
27839;SDS011;15207;42.182;24.308;2022-10-22T01:48:39;40.20;;;22.20;;
27839;SDS011;15207;42.182;24.308;2022-10-22T02:02:09;33.80;;;18.90;;
27839;SDS011;15207;42.182;24.308;2022-10-22T02:07:18;37.80;;;20.10;;
27839;SDS011;15207;42.182;24.308;2022-10-22T02:09:48;32.30;;;19.80;;
27839;SDS011;15207;42.182;24.308;2022-10-22T02:12:16;34.50;;;21.30;;
27839;SDS011;15207;42.182;24.308;2022-10-22T02:14:45;32.70;;;21.00;;
27839;SDS011;15207;42.182;24.308;2022-10-22T02:17:13;32.60;;;21.00;;
27839;SDS011;15207;42.182;24.308;2022-10-22T02:19:45;37.80;;;20.40;;
27839;SDS011;15207;42.182;24.308;2022-10-22T02:22:17;37.80;;;21.10;;
27839;SDS011;15207;42.182;24.308;2022-10-22T02:24:43;35.80;;;22.20;;
27839;SDS011;15207;42.182;24.308;2022-10-22T02:32:32;41.70;;;20.60;;
27839;SDS011;15207;42.182;24.308;2022-10-22T02:35:03;31.65;;;20.25;;
27839;SDS011;15207;42.182;24.308;2022-10-22T02:37:29;38.58;;;21.15;;
27839;SDS011;15207;42.182;24.308;2022-10-22T02:39:56;33.20;;;20.65;;
27839;SDS011;15207;42.182;24.308;2022-10-22T02:42:23;36.00;;;19.50;;
27839;SDS011;15207;42.182;24.308;2022-10-22T02:44:50;37.80;;;20.80;;
27839;SDS011;15207;42.182;24.308;2022-10-22T02:47:16;45.55;;;22.65;;
27839;SDS011;15207;42.182;24.308;2022-10-22T02:49:41;35.10;;;21.65;;
27839;SDS011;15207;42.182;24.308;2022-10-22T02:52:07;36.45;;;23.30;;
27839;SDS011;15207;42.182;24.308;2022-10-22T02:54:32;37.57;;;22.47;;
27839;SDS011;15207;42.182;24.308;2022-10-22T02:56:58;35.70;;;21.80;;
27839;SDS011;15207;42.182;24.308;2022-10-22T02:59:23;38.85;;;21.20;;
27839;SDS011;15207;42.182;24.308;2022-10-22T03:01:49;36.30;;;20.60;;
27839;SDS011;15207;42.182;24.308;2022-10-22T03:04:14;37.50;;;19.80;;
27839;SDS011;15207;42.182;24.308;2022-10-22T03:06:40;30.70;;;19.42;;
27839;SDS011;15207;42.182;24.308;2022-10-22T03:09:08;33.15;;;21.42;;
27839;SDS011;15207;42.182;24.308;2022-10-22T03:11:34;40.70;;;21.30;;
27839;SDS011;15207;42.182;24.308;2022-10-22T03:13:59;32.63;;;20.55;;
27839;SDS011;15207;42.182;24.308;2022-10-22T03:16:25;35.75;;;20.70;;
27839;SDS011;15207;42.182;24.308;2022-10-22T03:18:50;38.03;;;21.97;;
27839;SDS011;15207;42.182;24.308;2022-10-22T03:24:23;30.13;;;17.90;;
27839;SDS011;15207;42.182;24.308;2022-10-22T03:27:09;31.43;;;18.90;;
27839;SDS011;15207;42.182;24.308;2022-10-22T03:29:39;28.80;;;18.87;;
27839;SDS011;15207;42.182;24.308;2022-10-22T03:32:06;33.75;;;20.00;;
27839;SDS011;15207;42.182;24.308;2022-10-22T03:34:31;36.80;;;20.40;;
27839;SDS011;15207;42.182;24.308;2022-10-22T03:36:57;30.25;;;19.55;;
27839;SDS011;15207;42.182;24.308;2022-10-22T03:39:25;30.60;;;20.60;;
27839;SDS011;15207;42.182;24.308;2022-10-22T03:41:53;32.50;;;20.50;;
27839;SDS011;15207;42.182;24.308;2022-10-22T03:44:19;35.67;;;19.90;;
27839;SDS011;15207;42.182;24.308;2022-10-22T03:46:46;33.40;;;20.10;;
27839;SDS011;15207;42.182;24.308;2022-10-22T03:49:12;35.30;;;21.10;;
27839;SDS011;15207;42.182;24.308;2022-10-22T03:51:38;36.80;;;21.50;;
27839;SDS011;15207;42.182;24.308;2022-10-22T03:56:29;33.37;;;20.70;;
27839;SDS011;15207;42.182;24.308;2022-10-22T03:58:55;34.70;;;22.05;;
27839;SDS011;15207;42.182;24.308;2022-10-22T04:03:48;35.25;;;21.85;;
27839;SDS011;15207;42.182;24.308;2022-10-22T04:06:13;39.38;;;21.63;;
27839;SDS011;15207;42.182;24.308;2022-10-22T04:08:39;46.10;;;24.60;;
27839;SDS011;15207;42.182;24.308;2022-10-22T04:11:07;41.70;;;25.00;;
27839;SDS011;15207;42.182;24.308;2022-10-22T04:13:33;60.35;;;27.90;;
27839;SDS011;15207;42.182;24.308;2022-10-22T04:16:05;50.50;;;26.50;;
27839;SDS011;15207;42.182;24.308;2022-10-22T04:18:32;40.85;;;22.15;;
27839;SDS011;15207;42.182;24.308;2022-10-22T04:20:58;33.55;;;20.38;;
27839;SDS011;15207;42.182;24.308;2022-10-22T04:25:49;38.05;;;21.05;;
27839;SDS011;15207;42.182;24.308;2022-10-22T04:28:14;35.00;;;20.60;;
27839;SDS011;15207;42.182;24.308;2022-10-22T04:30:40;35.95;;;20.95;;
27839;SDS011;15207;42.182;24.308;2022-10-22T04:33:05;30.80;;;17.70;;
27839;SDS011;15207;42.182;24.308;2022-10-22T04:35:31;30.90;;;18.60;;
27839;SDS011;15207;42.182;24.308;2022-10-22T04:37:56;37.40;;;19.70;;
27839;SDS011;15207;42.182;24.308;2022-10-22T04:40:22;30.20;;;19.50;;
27839;SDS011;15207;42.182;24.308;2022-10-22T04:42:47;32.80;;;19.70;;
27839;SDS011;15207;42.182;24.308;2022-10-22T04:45:13;35.90;;;21.00;;
27839;SDS011;15207;42.182;24.308;2022-10-22T04:47:39;31.05;;;19.85;;
27839;SDS011;15207;42.182;24.308;2022-10-22T04:50:05;32.60;;;19.80;;
27839;SDS011;15207;42.182;24.308;2022-10-22T04:52:32;44.80;;;21.20;;
27839;SDS011;15207;42.182;24.308;2022-10-22T04:54:57;48.90;;;21.75;;
27839;SDS011;15207;42.182;24.308;2022-10-22T04:57:23;43.23;;;21.03;;
27839;SDS011;15207;42.182;24.308;2022-10-22T04:59:48;41.20;;;22.00;;
27839;SDS011;15207;42.182;24.308;2022-10-22T05:02:14;42.10;;;21.50;;
27839;SDS011;15207;42.182;24.308;2022-10-22T05:04:42;47.70;;;23.50;;
27839;SDS011;15207;42.182;24.308;2022-10-22T05:07:08;44.20;;;23.10;;
27839;SDS011;15207;42.182;24.308;2022-10-22T05:09:34;40.15;;;22.65;;
27839;SDS011;15207;42.182;24.308;2022-10-22T05:11:59;39.80;;;21.70;;
27839;SDS011;15207;42.182;24.308;2022-10-22T05:14:25;37.97;;;22.47;;
27839;SDS011;15207;42.182;24.308;2022-10-22T05:16:51;40.60;;;22.50;;
27839;SDS011;15207;42.182;24.308;2022-10-22T05:21:54;40.50;;;21.70;;
27839;SDS011;15207;42.182;24.308;2022-10-22T05:24:21;42.35;;;23.45;;
27839;SDS011;15207;42.182;24.308;2022-10-22T05:26:48;39.15;;;22.45;;
27839;SDS011;15207;42.182;24.308;2022-10-22T05:29:14;46.57;;;22.73;;
27839;SDS011;15207;42.182;24.308;2022-10-22T05:31:40;41.20;;;23.40;;
27839;SDS011;15207;42.182;24.308;2022-10-22T05:34:06;47.65;;;26.70;;
27839;SDS011;15207;42.182;24.308;2022-10-22T05:36:32;50.90;;;29.63;;
27839;SDS011;15207;42.182;24.308;2022-10-22T05:38:58;77.95;;;48.00;;
27839;SDS011;15207;42.182;24.308;2022-10-22T05:46:16;85.43;;;50.83;;
27839;SDS011;15207;42.182;24.308;2022-10-22T05:53:43;102.90;;;61.33;;
27839;SDS011;15207;42.182;24.308;2022-10-22T05:56:13;99.85;;;62.00;;
27839;SDS011;15207;42.182;24.308;2022-10-22T05:58:40;103.50;;;62.00;;
27839;SDS011;15207;42.182;24.308;2022-10-22T06:01:08;107.67;;;68.13;;
27839;SDS011;15207;42.182;24.308;2022-10-22T06:06:34;103.25;;;66.65;;
27839;SDS011;15207;42.182;24.308;2022-10-22T06:09:04;97.70;;;60.75;;
27839;SDS011;15207;42.182;24.308;2022-10-22T06:11:36;84.30;;;52.80;;
27839;SDS011;15207;42.182;24.308;2022-10-22T06:14:02;76.85;;;48.85;;
27839;SDS011;15207;42.182;24.308;2022-10-22T06:16:28;75.47;;;45.22;;
27839;SDS011;15207;42.182;24.308;2022-10-22T06:18:55;66.20;;;39.70;;
27839;SDS011;15207;42.182;24.308;2022-10-22T06:21:22;54.27;;;34.47;;
27839;SDS011;15207;42.182;24.308;2022-10-22T06:23:47;44.70;;;30.00;;
27839;SDS011;15207;42.182;24.308;2022-10-22T06:26:13;44.20;;;27.40;;
27839;SDS011;15207;42.182;24.308;2022-10-22T06:33:31;35.60;;;22.40;;
27839;SDS011;15207;42.182;24.308;2022-10-22T06:38:56;34.78;;;19.50;;
27839;SDS011;15207;42.182;24.308;2022-10-22T06:41:22;28.05;;;19.60;;
27839;SDS011;15207;42.182;24.308;2022-10-22T06:43:48;32.50;;;19.60;;
27839;SDS011;15207;42.182;24.308;2022-10-22T06:46:15;32.28;;;18.83;;
27839;SDS011;15207;42.182;24.308;2022-10-22T06:48:43;32.90;;;18.92;;
27839;SDS011;15207;42.182;24.308;2022-10-22T06:51:13;33.70;;;19.70;;
27839;SDS011;15207;42.182;24.308;2022-10-22T06:53:40;32.22;;;19.05;;
27839;SDS011;15207;42.182;24.308;2022-10-22T06:58:32;29.10;;;18.60;;
27839;SDS011;15207;42.182;24.308;2022-10-22T07:01:04;29.65;;;18.60;;
27839;SDS011;15207;42.182;24.308;2022-10-22T07:03:36;29.83;;;19.33;;
27839;SDS011;15207;42.182;24.308;2022-10-22T07:06:03;29.83;;;19.03;;
27839;SDS011;15207;42.182;24.308;2022-10-22T07:08:30;27.15;;;17.45;;
27839;SDS011;15207;42.182;24.308;2022-10-22T07:13:29;30.80;;;17.90;;
27839;SDS011;15207;42.182;24.308;2022-10-22T07:20:48;43.80;;;30.20;;
27839;SDS011;15207;42.182;24.308;2022-10-22T07:23:14;55.80;;;37.60;;
27839;SDS011;15207;42.182;24.308;2022-10-22T07:25:40;54.35;;;34.45;;
27839;SDS011;15207;42.182;24.308;2022-10-22T07:28:06;53.92;;;37.03;;
27839;SDS011;15207;42.182;24.308;2022-10-22T07:30:33;52.30;;;32.60;;
27839;SDS011;15207;42.182;24.308;2022-10-22T07:35:26;52.35;;;35.75;;
27839;SDS011;15207;42.182;24.308;2022-10-22T07:37:51;39.95;;;24.67;;
27839;SDS011;15207;42.182;24.308;2022-10-22T07:40:17;34.60;;;18.90;;
27839;SDS011;15207;42.182;24.308;2022-10-22T07:42:43;38.70;;;19.75;;
27839;SDS011;15207;42.182;24.308;2022-10-22T07:47:34;23.40;;;14.70;;
27839;SDS011;15207;42.182;24.308;2022-10-22T07:49:59;25.25;;;14.65;;
27839;SDS011;15207;42.182;24.308;2022-10-22T07:57:17;21.90;;;15.40;;
27839;SDS011;15207;42.182;24.308;2022-10-22T07:59:42;31.30;;;16.55;;
27839;SDS011;15207;42.182;24.308;2022-10-22T08:02:08;30.60;;;15.30;;
27839;SDS011;15207;42.182;24.308;2022-10-22T08:04:35;23.70;;;14.70;;
27839;SDS011;15207;42.182;24.308;2022-10-22T08:07:02;23.35;;;14.45;;
27839;SDS011;15207;42.182;24.308;2022-10-22T08:09:28;29.35;;;16.70;;
27839;SDS011;15207;42.182;24.308;2022-10-22T08:11:53;29.75;;;16.80;;
27839;SDS011;15207;42.182;24.308;2022-10-22T08:14:19;25.90;;;17.20;;
27839;SDS011;15207;42.182;24.308;2022-10-22T08:16:45;23.75;;;15.82;;
27839;SDS011;15207;42.182;24.308;2022-10-22T08:19:11;25.42;;;15.48;;
27839;SDS011;15207;42.182;24.308;2022-10-22T08:21:37;24.10;;;14.30;;
27839;SDS011;15207;42.182;24.308;2022-10-22T08:26:29;33.00;;;15.23;;
27839;SDS011;15207;42.182;24.308;2022-10-22T08:28:55;30.45;;;15.55;;
27839;SDS011;15207;42.182;24.308;2022-10-22T08:31:22;25.13;;;14.07;;
27839;SDS011;15207;42.182;24.308;2022-10-22T08:33:48;30.70;;;13.20;;
27839;SDS011;15207;42.182;24.308;2022-10-22T08:36:14;26.70;;;13.88;;
27839;SDS011;15207;42.182;24.308;2022-10-22T08:38:40;26.05;;;13.50;;
27839;SDS011;15207;42.182;24.308;2022-10-22T08:41:11;22.38;;;13.48;;
27839;SDS011;15207;42.182;24.308;2022-10-22T08:48:48;26.70;;;13.75;;
27839;SDS011;15207;42.182;24.308;2022-10-22T08:51:19;26.40;;;14.40;;
27839;SDS011;15207;42.182;24.308;2022-10-22T08:53:50;23.90;;;13.53;;
27839;SDS011;15207;42.182;24.308;2022-10-22T08:56:25;23.65;;;13.05;;
27839;SDS011;15207;42.182;24.308;2022-10-22T08:58:58;20.92;;;13.70;;
27839;SDS011;15207;42.182;24.308;2022-10-22T09:01:34;31.20;;;15.00;;
27839;SDS011;15207;42.182;24.308;2022-10-22T09:06:43;31.40;;;14.17;;
27839;SDS011;15207;42.182;24.308;2022-10-22T09:09:19;23.90;;;14.00;;
27839;SDS011;15207;42.182;24.308;2022-10-22T09:11:46;22.30;;;14.13;;
27839;SDS011;15207;42.182;24.308;2022-10-22T09:24:57;31.00;;;14.45;;
27839;SDS011;15207;42.182;24.308;2022-10-22T09:27:34;26.50;;;13.10;;
27839;SDS011;15207;42.182;24.308;2022-10-22T09:29:59;23.92;;;13.98;;
27839;SDS011;15207;42.182;24.308;2022-10-22T09:34:54;23.30;;;14.77;;
27839;SDS011;15207;42.182;24.308;2022-10-22T09:37:24;21.08;;;13.25;;
27839;SDS011;15207;42.182;24.308;2022-10-22T09:39:52;20.38;;;12.68;;
27839;SDS011;15207;42.182;24.308;2022-10-22T09:42:19;22.40;;;13.10;;
27839;SDS011;15207;42.182;24.308;2022-10-22T09:44:52;19.45;;;12.40;;
27839;SDS011;15207;42.182;24.308;2022-10-22T09:50:26;19.80;;;12.10;;
27839;SDS011;15207;42.182;24.308;2022-10-22T09:53:04;23.60;;;12.70;;
27839;SDS011;15207;42.182;24.308;2022-10-22T09:55:37;19.00;;;12.50;;
27839;SDS011;15207;42.182;24.308;2022-10-22T09:58:04;17.70;;;12.27;;
27839;SDS011;15207;42.182;24.308;2022-10-22T10:00:34;22.70;;;12.65;;
27839;SDS011;15207;42.182;24.308;2022-10-22T10:03:04;21.08;;;11.23;;
27839;SDS011;15207;42.182;24.308;2022-10-22T10:07:56;21.30;;;12.00;;
27839;SDS011;15207;42.182;24.308;2022-10-22T10:13:01;20.80;;;12.40;;
27839;SDS011;15207;42.182;24.308;2022-10-22T10:24:27;23.60;;;11.70;;
27839;SDS011;15207;42.182;24.308;2022-10-22T10:27:08;15.85;;;11.25;;
27839;SDS011;15207;42.182;24.308;2022-10-22T10:29:45;17.90;;;11.70;;
27839;SDS011;15207;42.182;24.308;2022-10-22T10:35:24;23.70;;;11.30;;
27839;SDS011;15207;42.182;24.308;2022-10-22T10:43:24;14.40;;;10.10;;
27839;SDS011;15207;42.182;24.308;2022-10-22T10:48:55;19.50;;;10.90;;
27839;SDS011;15207;42.182;24.308;2022-10-22T10:54:15;15.50;;;9.70;;
27839;SDS011;15207;42.182;24.308;2022-10-22T10:57:12;18.15;;;10.10;;
27839;SDS011;15207;42.182;24.308;2022-10-22T11:07:43;15.00;;;10.10;;
27839;SDS011;15207;42.182;24.308;2022-10-22T11:10:30;13.65;;;9.30;;
27839;SDS011;15207;42.182;24.308;2022-10-22T11:19:00;15.27;;;10.00;;
27839;SDS011;15207;42.182;24.308;2022-10-22T11:21:40;18.55;;;10.40;;
27839;SDS011;15207;42.182;24.308;2022-10-22T11:24:25;15.65;;;10.50;;
27839;SDS011;15207;42.182;24.308;2022-10-22T11:27:09;16.58;;;10.75;;
27839;SDS011;15207;42.182;24.308;2022-10-22T11:29:45;14.10;;;9.70;;
27839;SDS011;15207;42.182;24.308;2022-10-22T11:32:17;18.10;;;10.40;;
27839;SDS011;15207;42.182;24.308;2022-10-22T11:34:49;16.20;;;9.70;;
27839;SDS011;15207;42.182;24.308;2022-10-22T11:37:18;19.93;;;10.47;;
27839;SDS011;15207;42.182;24.308;2022-10-22T11:39:47;24.85;;;11.02;;
27839;SDS011;15207;42.182;24.308;2022-10-22T11:42:18;17.70;;;10.30;;
27839;SDS011;15207;42.182;24.308;2022-10-22T11:47:41;22.05;;;11.05;;
27839;SDS011;15207;42.182;24.308;2022-10-22T11:55:32;20.20;;;10.20;;
27839;SDS011;15207;42.182;24.308;2022-10-22T12:19:14;17.67;;;10.97;;
27839;SDS011;15207;42.182;24.308;2022-10-22T12:21:45;19.50;;;10.80;;
27839;SDS011;15207;42.182;24.308;2022-10-22T12:24:14;19.17;;;10.95;;
27839;SDS011;15207;42.182;24.308;2022-10-22T12:26:43;19.70;;;10.40;;
27839;SDS011;15207;42.182;24.308;2022-10-22T12:31:37;17.88;;;10.38;;
27839;SDS011;15207;42.182;24.308;2022-10-22T12:34:04;14.25;;;10.02;;
27839;SDS011;15207;42.182;24.308;2022-10-22T12:36:31;21.10;;;9.07;;
27839;SDS011;15207;42.182;24.308;2022-10-22T12:38:59;17.70;;;10.25;;
27839;SDS011;15207;42.182;24.308;2022-10-22T12:41:33;17.30;;;9.40;;
27839;SDS011;15207;42.182;24.308;2022-10-22T12:44:00;19.20;;;10.50;;
27839;SDS011;15207;42.182;24.308;2022-10-22T12:46:29;15.30;;;9.38;;
27839;SDS011;15207;42.182;24.308;2022-10-22T12:48:58;15.60;;;8.80;;
27839;SDS011;15207;42.182;24.308;2022-10-22T12:53:52;14.10;;;9.00;;
27839;SDS011;15207;42.182;24.308;2022-10-22T12:56:21;18.45;;;9.40;;
27839;SDS011;15207;42.182;24.308;2022-10-22T12:58:54;21.40;;;9.17;;
27839;SDS011;15207;42.182;24.308;2022-10-22T13:01:21;14.75;;;8.40;;
27839;SDS011;15207;42.182;24.308;2022-10-22T13:09:11;27.55;;;9.80;;
27839;SDS011;15207;42.182;24.308;2022-10-22T13:14:17;14.80;;;9.40;;
27839;SDS011;15207;42.182;24.308;2022-10-22T13:16:43;20.05;;;9.00;;
27839;SDS011;15207;42.182;24.308;2022-10-22T13:22:21;16.73;;;8.80;;
27839;SDS011;15207;42.182;24.308;2022-10-22T13:29:41;18.70;;;8.30;;
27839;SDS011;15207;42.182;24.308;2022-10-22T13:34:59;18.50;;;8.20;;
27839;SDS011;15207;42.182;24.308;2022-10-22T13:37:26;20.10;;;8.75;;
27839;SDS011;15207;42.182;24.308;2022-10-22T13:39:54;25.63;;;9.40;;
27839;SDS011;15207;42.182;24.308;2022-10-22T13:42:20;23.05;;;8.80;;
27839;SDS011;15207;42.182;24.308;2022-10-22T13:44:45;19.50;;;9.10;;
27839;SDS011;15207;42.182;24.308;2022-10-22T13:49:50;26.55;;;8.85;;
27839;SDS011;15207;42.182;24.308;2022-10-22T13:52:21;18.95;;;9.35;;
27839;SDS011;15207;42.182;24.308;2022-10-22T13:54:56;18.05;;;9.75;;
27839;SDS011;15207;42.182;24.308;2022-10-22T13:57:21;20.40;;;9.20;;
27839;SDS011;15207;42.182;24.308;2022-10-22T13:59:47;20.67;;;9.00;;
27839;SDS011;15207;42.182;24.308;2022-10-22T14:02:12;19.90;;;9.85;;
27839;SDS011;15207;42.182;24.308;2022-10-22T14:04:40;19.35;;;8.98;;
27839;SDS011;15207;42.182;24.308;2022-10-22T14:09:37;20.63;;;9.60;;
27839;SDS011;15207;42.182;24.308;2022-10-22T14:12:08;13.02;;;8.82;;
27839;SDS011;15207;42.182;24.308;2022-10-22T14:14:38;15.40;;;8.70;;
27839;SDS011;15207;42.182;24.308;2022-10-22T14:17:04;15.53;;;8.97;;
27839;SDS011;15207;42.182;24.308;2022-10-22T14:19:30;25.67;;;9.63;;
27839;SDS011;15207;42.182;24.308;2022-10-22T14:24:21;23.35;;;9.52;;
27839;SDS011;15207;42.182;24.308;2022-10-22T14:26:47;25.50;;;9.60;;
27839;SDS011;15207;42.182;24.308;2022-10-22T14:29:13;23.95;;;8.80;;
27839;SDS011;15207;42.182;24.308;2022-10-22T14:31:39;17.67;;;8.93;;
27839;SDS011;15207;42.182;24.308;2022-10-22T14:34:08;21.25;;;7.93;;
27839;SDS011;15207;42.182;24.308;2022-10-22T14:41:26;35.10;;;9.90;;
27839;SDS011;15207;42.182;24.308;2022-10-22T14:43:53;16.45;;;8.52;;
27839;SDS011;15207;42.182;24.308;2022-10-22T14:46:20;20.70;;;9.15;;
27839;SDS011;15207;42.182;24.308;2022-10-22T14:48:46;23.65;;;9.65;;
27839;SDS011;15207;42.182;24.308;2022-10-22T14:51:12;27.50;;;8.90;;
27839;SDS011;15207;42.182;24.308;2022-10-22T14:56:06;24.50;;;8.80;;
27839;SDS011;15207;42.182;24.308;2022-10-22T14:58:33;26.40;;;9.15;;
27839;SDS011;15207;42.182;24.308;2022-10-22T15:01:00;21.60;;;9.20;;
27839;SDS011;15207;42.182;24.308;2022-10-22T15:03:26;22.67;;;9.20;;
27839;SDS011;15207;42.182;24.308;2022-10-22T15:05:52;25.40;;;9.20;;
27839;SDS011;15207;42.182;24.308;2022-10-22T15:08:18;21.80;;;9.60;;
27839;SDS011;15207;42.182;24.308;2022-10-22T15:18:04;22.95;;;9.65;;
27839;SDS011;15207;42.182;24.308;2022-10-22T15:20:30;28.40;;;9.80;;
27839;SDS011;15207;42.182;24.308;2022-10-22T15:22:55;28.80;;;9.90;;
27839;SDS011;15207;42.182;24.308;2022-10-22T15:25:21;29.15;;;9.00;;
27839;SDS011;15207;42.182;24.308;2022-10-22T15:27:47;25.80;;;10.30;;
27839;SDS011;15207;42.182;24.308;2022-10-22T15:30:12;47.60;;;11.35;;
27839;SDS011;15207;42.182;24.308;2022-10-22T15:32:38;34.20;;;11.27;;
27839;SDS011;15207;42.182;24.308;2022-10-22T15:37:30;31.38;;;10.63;;
27839;SDS011;15207;42.182;24.308;2022-10-22T15:39:55;28.23;;;11.00;;
27839;SDS011;15207;42.182;24.308;2022-10-22T15:42:21;31.20;;;12.20;;
27839;SDS011;15207;42.182;24.308;2022-10-22T15:47:13;37.80;;;12.00;;
27839;SDS011;15207;42.182;24.308;2022-10-22T15:49:38;33.30;;;11.10;;
27839;SDS011;15207;42.182;24.308;2022-10-22T15:52:05;29.40;;;10.25;;
27839;SDS011;15207;42.182;24.308;2022-10-22T15:59:26;35.10;;;12.40;;
27839;SDS011;15207;42.182;24.308;2022-10-22T16:01:51;32.95;;;12.20;;
27839;SDS011;15207;42.182;24.308;2022-10-22T16:04:17;33.85;;;12.38;;
27839;SDS011;15207;42.182;24.308;2022-10-22T16:06:44;26.70;;;12.07;;
27839;SDS011;15207;42.182;24.308;2022-10-22T16:09:13;33.20;;;12.27;;
27839;SDS011;15207;42.182;24.308;2022-10-22T16:11:42;29.40;;;12.40;;
27839;SDS011;15207;42.182;24.308;2022-10-22T16:14:09;28.65;;;11.30;;
27839;SDS011;15207;42.182;24.308;2022-10-22T16:16:36;38.70;;;12.20;;
27839;SDS011;15207;42.182;24.308;2022-10-22T16:21:29;25.83;;;11.70;;
27839;SDS011;15207;42.182;24.308;2022-10-22T16:23:55;31.55;;;11.80;;
27839;SDS011;15207;42.182;24.308;2022-10-22T16:26:21;22.70;;;12.30;;
27839;SDS011;15207;42.182;24.308;2022-10-22T16:28:47;38.92;;;14.75;;
27839;SDS011;15207;42.182;24.308;2022-10-22T16:31:14;55.60;;;20.45;;
27839;SDS011;15207;42.182;24.308;2022-10-22T16:33:42;113.40;;;45.00;;
27839;SDS011;15207;42.182;24.308;2022-10-22T16:36:08;117.43;;;51.73;;
27839;SDS011;15207;42.182;24.308;2022-10-22T16:41:19;127.60;;;53.80;;
27839;SDS011;15207;42.182;24.308;2022-10-22T16:43:47;110.40;;;51.40;;
27839;SDS011;15207;42.182;24.308;2022-10-22T16:46:14;107.10;;;46.30;;
27839;SDS011;15207;42.182;24.308;2022-10-22T16:51:11;78.20;;;39.10;;
27839;SDS011;15207;42.182;24.308;2022-10-22T16:53:38;74.60;;;35.75;;
27839;SDS011;15207;42.182;24.308;2022-10-22T16:56:07;81.43;;;36.05;;
27839;SDS011;15207;42.182;24.308;2022-10-22T16:58:34;76.35;;;33.25;;
27839;SDS011;15207;42.182;24.308;2022-10-22T17:01:04;66.65;;;29.90;;
27839;SDS011;15207;42.182;24.308;2022-10-22T17:03:31;59.40;;;29.30;;
27839;SDS011;15207;42.182;24.308;2022-10-22T17:05:57;58.50;;;27.90;;
27839;SDS011;15207;42.182;24.308;2022-10-22T17:08:23;53.83;;;27.50;;
27839;SDS011;15207;42.182;24.308;2022-10-22T17:10:49;54.10;;;26.40;;
27839;SDS011;15207;42.182;24.308;2022-10-22T17:15:40;60.25;;;28.33;;
27839;SDS011;15207;42.182;24.308;2022-10-22T17:18:05;53.00;;;25.40;;
27839;SDS011;15207;42.182;24.308;2022-10-22T17:20:31;50.60;;;25.27;;
27839;SDS011;15207;42.182;24.308;2022-10-22T17:22:57;60.95;;;25.40;;
27839;SDS011;15207;42.182;24.308;2022-10-22T17:25:23;56.45;;;26.25;;
27839;SDS011;15207;42.182;24.308;2022-10-22T17:27:57;60.37;;;26.47;;
27839;SDS011;15207;42.182;24.308;2022-10-22T17:35:15;57.30;;;24.20;;
27839;SDS011;15207;42.182;24.308;2022-10-22T17:37:41;41.22;;;20.20;;
27839;SDS011;15207;42.182;24.308;2022-10-22T17:40:08;39.63;;;19.70;;
27839;SDS011;15207;42.182;24.308;2022-10-22T17:42:34;42.23;;;20.17;;
27839;SDS011;15207;42.182;24.308;2022-10-22T17:45:03;34.30;;;19.40;;
27839;SDS011;15207;42.182;24.308;2022-10-22T17:47:30;35.20;;;18.70;;
27839;SDS011;15207;42.182;24.308;2022-10-22T17:49:55;33.80;;;17.02;;
27839;SDS011;15207;42.182;24.308;2022-10-22T17:52:22;37.40;;;18.20;;
27839;SDS011;15207;42.182;24.308;2022-10-22T17:54:47;34.75;;;17.65;;
27839;SDS011;15207;42.182;24.308;2022-10-22T17:57:15;29.23;;;16.70;;
27839;SDS011;15207;42.182;24.308;2022-10-22T17:59:41;36.17;;;16.23;;
27839;SDS011;15207;42.182;24.308;2022-10-22T18:02:08;27.95;;;15.75;;
27839;SDS011;15207;42.182;24.308;2022-10-22T18:04:39;31.02;;;16.30;;
27839;SDS011;15207;42.182;24.308;2022-10-22T18:07:05;26.63;;;15.73;;
27839;SDS011;15207;42.182;24.308;2022-10-22T18:09:30;26.90;;;15.93;;
27839;SDS011;15207;42.182;24.308;2022-10-22T18:11:56;26.67;;;15.50;;
27839;SDS011;15207;42.182;24.308;2022-10-22T18:14:24;33.00;;;16.30;;
27839;SDS011;15207;42.182;24.308;2022-10-22T18:19:16;39.93;;;18.63;;
27839;SDS011;15207;42.182;24.308;2022-10-22T18:21:44;36.10;;;18.80;;
27839;SDS011;15207;42.182;24.308;2022-10-22T18:24:10;35.58;;;20.15;;
27839;SDS011;15207;42.182;24.308;2022-10-22T18:26:38;40.20;;;20.50;;
27839;SDS011;15207;42.182;24.308;2022-10-22T18:29:04;42.50;;;19.60;;
27839;SDS011;15207;42.182;24.308;2022-10-22T18:31:29;40.33;;;19.83;;
27839;SDS011;15207;42.182;24.308;2022-10-22T18:33:56;45.15;;;21.60;;
27839;SDS011;15207;42.182;24.308;2022-10-22T18:36:23;35.88;;;19.92;;
27839;SDS011;15207;42.182;24.308;2022-10-22T18:38:54;39.33;;;18.80;;